createdAt,value
2023-03-12T00:00:46.411Z,1005.42
2023-03-12T00:01:46.398Z,1005.37
2023-03-12T00:02:46.455Z,1005.42
2023-03-12T00:03:46.382Z,1005.42
2023-03-12T00:04:46.381Z,1005.43
2023-03-12T00:05:46.399Z,1005.39
2023-03-12T00:06:46.366Z,1005.39
2023-03-12T00:07:46.360Z,1005.43
2023-03-12T00:08:46.390Z,1005.34
2023-03-12T00:09:46.350Z,1005.34
2023-03-12T00:10:46.341Z,1005.38
2023-03-12T00:11:46.346Z,1005.36
2023-03-12T00:12:46.332Z,1005.34
2023-03-12T00:13:46.328Z,1005.35
2023-03-12T00:14:46.316Z,1005.31
2023-03-12T00:15:46.325Z,1005.40
2023-03-12T00:16:46.311Z,1005.31
2023-03-12T00:17:46.299Z,1005.33
2023-03-12T00:18:46.305Z,1005.33
2023-03-12T00:19:46.288Z,1005.38
2023-03-12T00:20:46.276Z,1005.30
2023-03-12T00:21:46.303Z,1005.33
2023-03-12T00:22:46.268Z,1005.34
2023-03-12T00:23:46.264Z,1005.29
2023-03-12T00:24:46.255Z,1005.32
2023-03-12T00:25:46.940Z,1005.38
2023-03-12T00:26:46.248Z,1005.38
2023-03-12T00:27:46.237Z,1005.32
2023-03-12T00:28:46.227Z,1005.36
2023-03-12T00:29:46.240Z,1005.37
2023-03-12T00:30:46.223Z,1005.39
2023-03-12T00:31:46.331Z,1005.40
2023-03-12T00:32:46.261Z,1005.43
2023-03-12T00:33:46.214Z,1005.42
2023-03-12T00:34:46.192Z,1005.44
2023-03-12T00:35:46.255Z,1005.48
2023-03-12T00:36:46.213Z,1005.46
2023-03-12T00:37:46.200Z,1005.46
2023-03-12T00:38:46.179Z,1005.46
2023-03-12T00:39:46.172Z,1005.49
2023-03-12T00:40:46.160Z,1005.50
2023-03-12T00:41:46.147Z,1005.46
2023-03-12T00:42:46.137Z,1005.51
2023-03-12T00:43:46.133Z,1005.48
2023-03-12T00:44:46.126Z,1005.48
2023-03-12T00:45:46.128Z,1005.48
2023-03-12T00:46:46.200Z,1005.50
2023-03-12T00:47:46.158Z,1005.49
2023-03-12T00:48:46.101Z,1005.47
2023-03-12T00:49:46.100Z,1005.57
2023-03-12T00:50:46.088Z,1005.58
2023-03-12T00:51:46.093Z,1005.51
2023-03-12T00:52:46.077Z,1005.53
2023-03-12T00:53:46.112Z,1005.56
2023-03-12T00:54:46.072Z,1005.58
2023-03-12T00:55:46.066Z,1005.59
2023-03-12T00:56:46.052Z,1005.54
2023-03-12T00:57:46.046Z,1005.52
2023-03-12T00:58:46.041Z,1005.56
2023-03-12T00:59:46.038Z,1005.55
2023-03-12T01:00:46.112Z,1005.53
2023-03-12T01:01:46.021Z,1005.56
2023-03-12T01:02:46.021Z,1005.61
2023-03-12T01:03:46.116Z,1005.58
2023-03-12T01:04:46.005Z,1005.57
2023-03-12T01:05:46.000Z,1005.62
2023-03-12T01:06:45.995Z,1005.63
2023-03-12T01:07:45.985Z,1005.58
2023-03-12T01:08:45.991Z,1005.58
2023-03-12T01:09:45.998Z,1005.60
2023-03-12T01:10:45.969Z,1005.64
2023-03-12T01:11:45.969Z,1005.64
2023-03-12T01:12:45.959Z,1005.65
2023-03-12T01:13:45.955Z,1005.60
2023-03-12T01:14:45.937Z,1005.63
2023-03-12T01:15:45.950Z,1005.64
2023-03-12T01:16:46.026Z,1005.66
2023-03-12T01:17:45.941Z,1005.68
2023-03-12T01:18:45.923Z,1005.68
2023-03-12T01:19:45.914Z,1005.70
2023-03-12T01:20:45.909Z,1005.71
2023-03-12T01:21:45.916Z,1005.72
2023-03-12T01:22:45.900Z,1005.76
2023-03-12T01:23:45.893Z,1005.72
2023-03-12T01:24:45.890Z,1005.76
2023-03-12T01:25:45.903Z,1005.69
2023-03-12T01:26:45.870Z,1005.76
2023-03-12T01:27:45.877Z,1005.77
2023-03-12T01:28:45.858Z,1005.70
2023-03-12T01:29:45.857Z,1005.71
2023-03-12T01:30:45.851Z,1005.75
2023-03-12T01:31:45.862Z,1005.78
2023-03-12T01:32:45.866Z,1005.78
2023-03-12T01:33:45.841Z,1005.70
2023-03-12T01:34:45.825Z,1005.74
2023-03-12T01:35:45.974Z,1005.72
2023-03-12T01:36:45.812Z,1005.72
2023-03-12T01:37:45.811Z,1005.73
2023-03-12T01:38:45.798Z,1005.72
2023-03-12T01:39:45.797Z,1005.74
2023-03-12T01:40:45.788Z,1005.78
2023-03-12T01:41:45.813Z,1005.73
2023-03-12T01:42:45.771Z,1005.74
2023-03-12T01:43:45.771Z,1005.74
2023-03-12T01:44:45.760Z,1005.77
2023-03-12T01:45:45.773Z,1005.78
2023-03-12T01:46:45.742Z,1005.76
2023-03-12T01:47:45.745Z,1005.80
2023-03-12T01:48:45.742Z,1005.80
2023-03-12T01:49:45.737Z,1005.79
2023-03-12T01:50:45.729Z,1005.84
2023-03-12T01:51:45.728Z,1005.86
2023-03-12T01:52:45.708Z,1005.88
2023-03-12T01:53:45.709Z,1005.89
2023-03-12T01:54:45.699Z,1005.95
2023-03-12T01:55:45.692Z,1005.91
2023-03-12T01:56:45.687Z,1005.91
2023-03-12T01:57:45.706Z,1005.92
2023-03-12T01:58:45.679Z,1005.94
2023-03-12T01:59:45.677Z,1005.89
2023-03-12T02:00:45.719Z,1005.92
2023-03-12T02:01:45.666Z,1005.95
2023-03-12T02:02:45.652Z,1005.94
2023-03-12T02:03:45.796Z,1005.95
2023-03-12T02:04:45.642Z,1005.97
2023-03-12T02:05:45.639Z,1005.98
2023-03-12T02:06:45.630Z,1006.00
2023-03-12T02:07:45.624Z,1006.02
2023-03-12T02:08:45.636Z,1006.00
2023-03-12T02:09:45.612Z,1005.99
2023-03-12T02:10:45.610Z,1006.09
2023-03-12T02:11:45.607Z,1006.08
2023-03-12T02:12:45.596Z,1006.09
2023-03-12T02:13:45.623Z,1006.11
2023-03-12T02:14:45.611Z,1006.11
2023-03-12T02:15:45.578Z,1006.09
2023-03-12T02:16:45.645Z,1006.10
2023-03-12T02:17:45.575Z,1006.06
2023-03-12T02:18:45.563Z,1006.17
2023-03-12T02:19:45.559Z,1006.11
2023-03-12T02:20:45.553Z,1006.07
2023-03-12T02:21:45.549Z,1006.04
2023-03-12T02:22:45.534Z,1006.04
2023-03-12T02:23:45.694Z,1006.04
2023-03-12T02:24:45.535Z,1006.11
2023-03-12T02:25:45.525Z,1006.03
2023-03-12T02:26:45.519Z,1006.11
2023-03-12T02:27:45.517Z,1006.12
2023-03-12T02:28:45.505Z,1006.15
2023-03-12T02:29:45.527Z,1006.16
2023-03-12T02:30:45.491Z,1006.20
2023-03-12T02:31:45.553Z,1006.17
2023-03-12T02:32:45.616Z,1006.23
2023-03-12T02:33:45.482Z,1006.21
2023-03-12T02:34:45.479Z,1006.22
2023-03-12T02:35:45.489Z,1006.21
2023-03-12T02:36:45.460Z,1006.20
2023-03-12T02:37:45.455Z,1006.19
2023-03-12T02:38:45.444Z,1006.20
2023-03-12T02:39:45.444Z,1006.25
2023-03-12T02:40:45.431Z,1006.26
2023-03-12T02:41:45.434Z,1006.27
2023-03-12T02:42:45.425Z,1006.27
2023-03-12T02:43:45.427Z,1006.26
2023-03-12T02:44:45.411Z,1006.22
2023-03-12T02:45:45.464Z,1006.25
2023-03-12T02:46:45.402Z,1006.29
2023-03-12T02:47:45.402Z,1006.30
2023-03-12T02:48:45.391Z,1006.29
2023-03-12T02:49:45.387Z,1006.35
2023-03-12T02:50:45.383Z,1006.36
2023-03-12T02:51:45.374Z,1006.38
2023-03-12T02:52:45.367Z,1006.41
2023-03-12T02:53:45.367Z,1006.43
2023-03-12T02:54:45.372Z,1006.43
2023-03-12T02:55:45.367Z,1006.43
2023-03-12T02:56:45.364Z,1006.44
2023-03-12T02:57:45.342Z,1006.47
2023-03-12T02:58:45.339Z,1006.43
2023-03-12T02:59:45.333Z,1006.45
2023-03-12T03:00:45.325Z,1006.48
2023-03-12T03:01:45.496Z,1006.40
2023-03-12T03:02:45.322Z,1006.39
2023-03-12T03:03:45.359Z,1006.43
2023-03-12T03:04:45.300Z,1006.44
2023-03-12T03:05:45.295Z,1006.44
2023-03-12T03:06:45.295Z,1006.44
2023-03-12T03:07:45.290Z,1006.41
2023-03-12T03:08:45.275Z,1006.47
2023-03-12T03:09:45.272Z,1006.47
2023-03-12T03:10:45.268Z,1006.48
2023-03-12T03:11:45.259Z,1006.50
2023-03-12T03:12:45.253Z,1006.48
2023-03-12T03:13:45.254Z,1006.52
2023-03-12T03:14:45.243Z,1006.50
2023-03-12T03:15:45.273Z,1006.57
2023-03-12T03:16:45.238Z,1006.49
2023-03-12T03:17:45.257Z,1006.49
2023-03-12T03:18:45.221Z,1006.54
2023-03-12T03:19:45.216Z,1006.50
2023-03-12T03:20:45.212Z,1006.58
2023-03-12T03:21:45.211Z,1006.55
2023-03-12T03:22:45.202Z,1006.56
2023-03-12T03:23:45.200Z,1006.58
2023-03-12T03:24:45.186Z,1006.65
2023-03-12T03:25:45.180Z,1006.60
2023-03-12T03:26:45.183Z,1006.63
2023-03-12T03:27:45.171Z,1006.63
2023-03-12T03:28:45.168Z,1006.64
2023-03-12T03:29:45.158Z,1006.67
2023-03-12T03:30:45.224Z,1006.70
2023-03-12T03:31:45.146Z,1006.67
2023-03-12T03:32:45.226Z,1006.70
2023-03-12T03:33:45.160Z,1006.72
2023-03-12T03:34:45.133Z,1006.72
2023-03-12T03:35:45.164Z,1006.71
2023-03-12T03:36:45.125Z,1006.71
2023-03-12T03:37:45.105Z,1006.73
2023-03-12T03:38:45.103Z,1006.74
2023-03-12T03:39:45.103Z,1006.74
2023-03-12T03:40:45.094Z,1006.72
2023-03-12T03:41:45.084Z,1006.72
2023-03-12T03:42:45.096Z,1006.74
2023-03-12T03:43:45.075Z,1006.79
2023-03-12T03:44:45.071Z,1006.79
2023-03-12T03:45:45.062Z,1006.79
2023-03-12T03:46:45.065Z,1006.82
2023-03-12T03:47:45.048Z,1006.84
2023-03-12T03:48:45.049Z,1006.86
2023-03-12T03:49:45.063Z,1006.80
2023-03-12T03:50:45.032Z,1006.83
2023-03-12T03:51:45.044Z,1006.83
2023-03-12T03:52:45.026Z,1006.86
2023-03-12T03:53:45.014Z,1006.88
2023-03-12T03:54:45.010Z,1006.84
2023-03-12T03:55:45.005Z,1006.91
2023-03-12T03:56:45.001Z,1006.88
2023-03-12T03:57:45.000Z,1006.90
2023-03-12T03:58:44.993Z,1006.93
2023-03-12T03:59:44.997Z,1006.92
2023-03-12T04:00:45.026Z,1006.84
2023-03-12T04:01:44.971Z,1006.91
2023-03-12T04:02:44.986Z,1006.88
2023-03-12T04:03:45.067Z,1006.91
2023-03-12T04:04:44.951Z,1006.89
2023-03-12T04:05:45.069Z,1006.93
2023-03-12T04:06:44.962Z,1006.92
2023-03-12T04:07:44.928Z,1006.94
2023-03-12T04:08:44.931Z,1006.95
2023-03-12T04:09:44.920Z,1006.99
2023-03-12T04:10:44.916Z,1007.00
2023-03-12T04:11:44.906Z,1007.01
2023-03-12T04:12:44.904Z,1007.04
2023-03-12T04:13:44.892Z,1007.00
2023-03-12T04:14:44.893Z,1006.99
2023-03-12T04:15:44.939Z,1006.99
2023-03-12T04:16:44.878Z,1007.00
2023-03-12T04:17:44.982Z,1007.01
2023-03-12T04:18:44.868Z,1007.03
2023-03-12T04:19:44.862Z,1007.04
2023-03-12T04:20:44.859Z,1007.08
2023-03-12T04:21:44.867Z,1007.06
2023-03-12T04:22:44.842Z,1007.08
2023-03-12T04:23:44.831Z,1007.10
2023-03-12T04:24:44.839Z,1007.10
2023-03-12T04:25:44.822Z,1007.13
2023-03-12T04:26:44.823Z,1007.11
2023-03-12T04:27:44.813Z,1007.13
2023-03-12T04:28:44.811Z,1007.08
2023-03-12T04:29:44.799Z,1007.10
2023-03-12T04:30:44.802Z,1007.10
2023-03-12T04:31:44.945Z,1007.15
2023-03-12T04:32:44.827Z,1007.14
2023-03-12T04:33:44.793Z,1007.12
2023-03-12T04:34:44.769Z,1007.13
2023-03-12T04:35:44.774Z,1007.14
2023-03-12T04:36:44.761Z,1007.14
2023-03-12T04:37:44.772Z,1007.10
2023-03-12T04:38:44.751Z,1007.12
2023-03-12T04:39:44.738Z,1007.15
2023-03-12T04:40:44.736Z,1007.16
2023-03-12T04:41:44.734Z,1007.16
2023-03-12T04:42:44.726Z,1007.19
2023-03-12T04:43:44.714Z,1007.19
2023-03-12T04:44:44.718Z,1007.19
2023-03-12T04:45:44.706Z,1007.22
2023-03-12T04:46:44.793Z,1007.24
2023-03-12T04:47:44.695Z,1007.27
2023-03-12T04:48:44.689Z,1007.30
2023-03-12T04:49:44.686Z,1007.25
2023-03-12T04:50:44.709Z,1007.26
2023-03-12T04:51:44.673Z,1007.31
2023-03-12T04:52:44.670Z,1007.40
2023-03-12T04:53:44.780Z,1007.35
2023-03-12T04:54:46.794Z,1007.37
2023-03-12T04:55:44.649Z,1007.38
2023-03-12T04:56:44.650Z,1007.37
2023-03-12T04:57:44.632Z,1007.35
2023-03-12T04:58:44.632Z,1007.35
2023-03-12T04:59:44.625Z,1007.35
2023-03-12T05:00:44.623Z,1007.41
2023-03-12T05:01:44.609Z,1007.35
2023-03-12T05:02:44.639Z,1007.38
2023-03-12T05:03:44.655Z,1007.39
2023-03-12T05:04:44.598Z,1007.40
2023-03-12T05:05:44.592Z,1007.39
2023-03-12T05:06:44.585Z,1007.37
2023-03-12T05:07:44.576Z,1007.41
2023-03-12T05:08:44.570Z,1007.41
2023-03-12T05:09:44.586Z,1007.44
2023-03-12T05:10:44.569Z,1007.40
2023-03-12T05:11:44.566Z,1007.42
2023-03-12T05:12:44.556Z,1007.38
2023-03-12T05:13:44.550Z,1007.47
2023-03-12T05:14:44.540Z,1007.48
2023-03-12T05:15:44.551Z,1007.44
2023-03-12T05:16:44.583Z,1007.50
2023-03-12T05:17:44.515Z,1007.48
2023-03-12T05:18:44.513Z,1007.49
2023-03-12T05:19:44.503Z,1007.53
2023-03-12T05:20:44.498Z,1007.49
2023-03-12T05:21:44.489Z,1007.52
2023-03-12T05:22:44.484Z,1007.49
2023-03-12T05:23:44.481Z,1007.48
2023-03-12T05:24:44.478Z,1007.51
2023-03-12T05:25:44.491Z,1007.47
2023-03-12T05:26:44.459Z,1007.49
2023-03-12T05:27:44.449Z,1007.52
2023-03-12T05:28:44.450Z,1007.49
2023-03-12T05:29:44.445Z,1007.49
2023-03-12T05:30:44.434Z,1007.50
2023-03-12T05:31:44.448Z,1007.45
2023-03-12T05:32:44.462Z,1007.47
2023-03-12T05:33:44.420Z,1007.46
2023-03-12T05:34:44.414Z,1007.42
2023-03-12T05:35:44.458Z,1007.44
2023-03-12T05:36:44.398Z,1007.42
2023-03-12T05:37:44.388Z,1007.43
2023-03-12T05:38:44.389Z,1007.42
2023-03-12T05:39:44.381Z,1007.42
2023-03-12T05:40:44.382Z,1007.45
2023-03-12T05:41:44.390Z,1007.41
2023-03-12T05:42:44.365Z,1007.41
2023-03-12T05:43:44.351Z,1007.44
2023-03-12T05:44:44.357Z,1007.51
2023-03-12T05:45:44.396Z,1007.43
2023-03-12T05:46:44.345Z,1007.48
2023-03-12T05:47:44.331Z,1007.45
2023-03-12T05:48:44.326Z,1007.44
2023-03-12T05:49:44.321Z,1007.47
2023-03-12T05:50:44.326Z,1007.44
2023-03-12T05:51:44.314Z,1007.49
2023-03-12T05:52:44.355Z,1007.48
2023-03-12T05:53:44.288Z,1007.48
2023-03-12T05:54:44.285Z,1007.51
2023-03-12T05:55:44.284Z,1007.47
2023-03-12T05:56:44.275Z,1007.50
2023-03-12T05:57:44.295Z,1007.53
2023-03-12T05:58:44.260Z,1007.52
2023-03-12T05:59:44.249Z,1007.54
2023-03-12T06:00:44.276Z,1007.57
2023-03-12T06:01:44.237Z,1007.52
2023-03-12T06:02:44.234Z,1007.57
2023-03-12T06:03:44.394Z,1007.51
2023-03-12T06:04:44.235Z,1007.59
2023-03-12T06:05:44.219Z,1007.59
2023-03-12T06:06:44.212Z,1007.56
2023-03-12T06:07:44.198Z,1007.56
2023-03-12T06:08:44.218Z,1007.61
2023-03-12T06:09:44.186Z,1007.54
2023-03-12T06:10:44.182Z,1007.55
2023-03-12T06:11:44.174Z,1007.58
2023-03-12T06:12:44.184Z,1007.57
2023-03-12T06:13:44.196Z,1007.56
2023-03-12T06:14:44.164Z,1007.55
2023-03-12T06:15:44.148Z,1007.59
2023-03-12T06:16:44.280Z,1007.55
2023-03-12T06:17:44.140Z,1007.59
2023-03-12T06:18:44.162Z,1007.54
2023-03-12T06:19:44.129Z,1007.59
2023-03-12T06:20:44.122Z,1007.59
2023-03-12T06:21:44.109Z,1007.62
2023-03-12T06:22:44.104Z,1007.59
2023-03-12T06:23:44.104Z,1007.59
2023-03-12T06:24:44.098Z,1007.59
2023-03-12T06:25:44.087Z,1007.63
2023-03-12T06:26:44.080Z,1007.65
2023-03-12T06:27:44.072Z,1007.65
2023-03-12T06:28:44.071Z,1007.68
2023-03-12T06:29:44.088Z,1007.72
2023-03-12T06:30:44.052Z,1007.68
2023-03-12T06:31:44.285Z,1007.71
2023-03-12T06:32:44.108Z,1007.73
2023-03-12T06:33:44.036Z,1007.70
2023-03-12T06:34:44.045Z,1007.73
2023-03-12T06:35:44.089Z,1007.74
2023-03-12T06:36:44.023Z,1007.73
2023-03-12T06:37:44.013Z,1007.74
2023-03-12T06:38:44.009Z,1007.74
2023-03-12T06:39:44.001Z,1007.73
2023-03-12T06:40:44.005Z,1007.77
2023-03-12T06:41:43.991Z,1007.78
2023-03-12T06:42:43.986Z,1007.78
2023-03-12T06:43:43.986Z,1007.78
2023-03-12T06:44:43.975Z,1007.81
2023-03-12T06:45:43.989Z,1007.80
2023-03-12T06:46:43.977Z,1007.78
2023-03-12T06:47:43.955Z,1007.79
2023-03-12T06:48:43.954Z,1007.81
2023-03-12T06:49:43.946Z,1007.84
2023-03-12T06:50:43.938Z,1007.82
2023-03-12T06:53:16.556Z,1007.91
2023-03-12T06:54:16.575Z,1007.91
2023-03-12T06:55:16.552Z,1007.93
2023-03-12T06:56:16.551Z,1007.96
2023-03-12T06:57:16.537Z,1007.96
2023-03-12T06:58:16.534Z,1007.91
2023-03-12T06:59:16.533Z,1007.98
2023-03-12T07:00:16.524Z,1007.95
2023-03-12T07:01:16.557Z,1007.97
2023-03-12T07:02:16.586Z,1007.95
2023-03-12T07:03:16.505Z,1007.97
2023-03-12T07:04:16.503Z,1007.99
2023-03-12T07:05:16.548Z,1007.97
2023-03-12T07:06:16.496Z,1007.98
2023-03-12T07:07:16.484Z,1008.07
2023-03-12T07:08:16.480Z,1008.02
2023-03-12T07:09:16.479Z,1008.00
2023-03-12T07:10:16.467Z,1008.01
2023-03-12T07:11:16.482Z,1008.00
2023-03-12T07:12:16.460Z,1008.02
2023-03-12T07:13:16.450Z,1008.03
2023-03-12T07:14:16.456Z,1008.00
2023-03-12T07:15:16.447Z,1008.02
2023-03-12T07:16:16.527Z,1008.01
2023-03-12T07:17:16.457Z,1008.06
2023-03-12T07:18:16.427Z,1008.07
2023-03-12T07:19:16.419Z,1008.10
2023-03-12T07:20:16.415Z,1008.11
2023-03-12T07:21:16.408Z,1008.14
2023-03-12T07:22:16.408Z,1008.18
2023-03-12T07:23:16.410Z,1008.18
2023-03-12T07:24:16.393Z,1008.24
2023-03-12T07:25:18.634Z,1008.26
2023-03-12T07:26:16.389Z,1008.29
2023-03-12T07:27:16.385Z,1008.28
2023-03-12T07:28:16.377Z,1008.31
2023-03-12T07:29:16.369Z,1008.35
2023-03-12T07:30:16.379Z,1008.38
2023-03-12T07:31:16.387Z,1008.44
2023-03-12T07:32:16.430Z,1008.45
2023-03-12T07:33:16.552Z,1008.44
2023-03-12T07:34:16.500Z,1008.46
2023-03-12T07:35:16.343Z,1008.59
2023-03-12T07:36:16.563Z,1008.53
2023-03-12T07:37:16.330Z,1008.55
2023-03-12T07:38:16.347Z,1008.60
2023-03-12T07:39:16.322Z,1008.51
2023-03-12T07:40:16.321Z,1008.51
2023-03-12T07:41:16.356Z,1008.52
2023-03-12T07:42:16.348Z,1008.63
2023-03-12T07:43:16.296Z,1008.64
2023-03-12T07:44:16.306Z,1008.62
2023-03-12T07:45:16.330Z,1008.72
2023-03-12T07:46:16.311Z,1008.68
2023-03-12T07:47:23.643Z,1008.64
2023-03-12T07:48:16.329Z,1008.61
2023-03-12T07:49:16.304Z,1008.73
2023-03-12T07:50:16.309Z,1008.62
2023-03-12T07:51:16.271Z,1008.73
2023-03-12T07:52:16.318Z,1008.84
2023-03-12T07:53:16.261Z,1008.78
2023-03-12T07:54:16.261Z,1008.77
2023-03-12T07:55:16.472Z,1008.82
2023-03-12T07:56:16.417Z,1008.89
2023-03-12T07:57:16.403Z,1009.04
2023-03-12T07:58:16.413Z,1009.04
2023-03-12T07:59:16.363Z,1009.11
2023-03-12T08:00:16.287Z,1009.07
2023-03-12T08:01:16.287Z,1009.07
2023-03-12T08:02:16.312Z,1009.11
2023-03-12T08:03:16.329Z,1009.19
2023-03-12T08:04:16.279Z,1009.27
2023-03-12T08:05:16.241Z,1009.23
2023-03-12T08:06:16.294Z,1009.28
2023-03-12T08:07:16.345Z,1009.32
2023-03-12T08:08:16.240Z,1009.32
2023-03-12T08:09:16.203Z,1009.40
2023-03-12T08:10:16.246Z,1009.35
2023-03-12T08:11:16.198Z,1009.32
2023-03-12T08:12:16.256Z,1009.36
2023-03-12T08:13:16.252Z,1009.31
2023-03-12T08:14:16.206Z,1009.33
2023-03-12T08:15:16.199Z,1009.31
2023-03-12T08:16:16.217Z,1009.34
2023-03-12T08:17:16.206Z,1009.38
2023-03-12T08:18:16.227Z,1009.40
2023-03-12T08:19:16.191Z,1009.36
2023-03-12T08:20:16.188Z,1009.17
2023-03-12T08:21:16.589Z,1009.14
2023-03-12T08:22:16.187Z,1009.15
2023-03-12T08:23:16.183Z,1009.27
2023-03-12T08:24:16.189Z,1009.36
2023-03-12T08:25:16.179Z,1009.36
2023-03-12T08:26:16.186Z,1009.42
2023-03-12T08:27:16.187Z,1009.39
2023-03-12T08:28:16.185Z,1009.36
2023-03-12T08:29:16.192Z,1009.40
2023-03-12T08:30:16.190Z,1009.44
2023-03-12T08:31:16.194Z,1009.59
2023-03-12T08:32:16.340Z,1009.63
2023-03-12T08:33:16.200Z,1009.73
2023-03-12T08:34:16.178Z,1009.76
2023-03-12T08:35:16.176Z,1009.82
2023-03-12T08:36:16.180Z,1009.83
2023-03-12T08:37:16.214Z,1009.86
2023-03-12T08:38:16.183Z,1009.91
2023-03-12T08:39:16.177Z,1009.73
2023-03-12T08:40:16.178Z,1009.71
2023-03-12T08:41:16.197Z,1009.89
2023-03-12T08:42:16.185Z,1010.01
2023-03-12T08:43:16.181Z,1010.13
2023-03-12T08:44:16.183Z,1010.10
2023-03-12T08:45:16.179Z,1010.15
2023-03-12T08:46:16.247Z,1009.60
2023-03-12T08:47:16.191Z,1010.19
2023-03-12T08:48:16.194Z,1010.27
2023-03-12T08:49:16.189Z,1010.31
2023-03-12T08:50:16.187Z,1010.22
2023-03-12T08:51:16.957Z,1010.04
2023-03-12T08:52:16.185Z,1009.90
2023-03-12T08:53:16.223Z,1009.93
2023-03-12T08:54:16.200Z,1009.80
2023-03-12T08:55:16.229Z,1009.83
2023-03-12T08:56:16.198Z,1009.70
2023-03-12T08:57:16.201Z,1009.75
2023-03-12T08:58:16.202Z,1009.85
2023-03-12T08:59:16.201Z,1009.77
2023-03-12T09:00:16.238Z,1009.73
2023-03-12T09:01:16.203Z,1009.66
2023-03-12T09:02:16.212Z,1009.51
2023-03-12T09:03:16.220Z,1009.64
2023-03-12T09:04:16.293Z,1009.64
2023-03-12T09:05:16.206Z,1009.48
2023-03-12T09:06:16.207Z,1009.35
2023-03-12T09:07:16.209Z,1009.21
2023-03-12T09:08:16.210Z,1008.96
2023-03-12T09:09:16.227Z,1009.00
2023-03-12T09:10:16.229Z,1008.92
2023-03-12T09:11:16.212Z,1008.92
2023-03-12T09:12:16.212Z,1008.92
2023-03-12T09:13:16.212Z,1008.91
2023-03-12T09:15:16.218Z,1008.90
2023-03-12T09:15:16.434Z,1008.92
2023-03-12T09:16:16.226Z,1008.85
2023-03-12T09:17:16.218Z,1008.83
2023-03-12T09:18:16.267Z,1008.82
2023-03-12T09:19:16.214Z,1008.96
2023-03-12T09:20:16.221Z,1009.07
2023-03-12T09:21:16.215Z,1009.07
2023-03-12T09:22:16.218Z,1009.00
2023-03-12T09:23:16.219Z,1008.96
2023-03-12T09:24:16.225Z,1008.92
2023-03-12T09:25:16.240Z,1008.89
2023-03-12T09:26:16.234Z,1008.89
2023-03-12T09:27:16.228Z,1008.88
2023-03-12T09:28:16.737Z,1008.91
2023-03-12T09:29:16.217Z,1008.95
2023-03-12T09:30:16.227Z,1008.97
2023-03-12T09:31:16.253Z,1008.98
2023-03-12T09:32:16.329Z,1008.96
2023-03-12T09:33:16.216Z,1008.98
2023-03-12T09:34:16.225Z,1008.94
2023-03-12T09:35:16.237Z,1008.94
2023-03-12T09:36:16.219Z,1008.97
2023-03-12T09:37:16.217Z,1009.02
2023-03-12T09:38:16.224Z,1008.94
2023-03-12T09:39:16.216Z,1009.00
2023-03-12T09:40:16.221Z,1009.02
2023-03-12T09:41:16.242Z,1009.05
2023-03-12T09:42:16.221Z,1009.03
2023-03-12T09:43:16.224Z,1009.00
2023-03-12T09:44:16.221Z,1008.94
2023-03-12T09:45:16.223Z,1008.90
2023-03-12T09:46:16.247Z,1008.90
2023-03-12T09:47:16.228Z,1008.93
2023-03-12T09:48:16.224Z,1008.96
2023-03-12T09:49:16.227Z,1008.91
2023-03-12T09:50:16.229Z,1008.94
2023-03-12T09:51:16.217Z,1008.91
2023-03-12T09:52:16.223Z,1008.91
2023-03-12T09:53:16.217Z,1008.87
2023-03-12T09:54:16.250Z,1008.84
2023-03-12T09:55:16.230Z,1008.80
2023-03-12T09:56:16.223Z,1008.78
2023-03-12T09:57:16.239Z,1008.74
2023-03-12T09:58:16.233Z,1008.71
2023-03-12T09:59:16.225Z,1008.69
2023-03-12T10:00:16.222Z,1008.61
2023-03-12T10:01:16.225Z,1008.65
2023-03-12T10:02:16.220Z,1008.65
2023-03-12T10:03:16.232Z,1008.62
2023-03-12T10:04:16.259Z,1008.66
2023-03-12T10:05:16.288Z,1008.61
2023-03-12T10:06:16.249Z,1008.57
2023-03-12T10:07:16.221Z,1008.57
2023-03-12T10:08:23.993Z,1008.56
2023-03-12T10:09:16.229Z,1008.54
2023-03-12T10:10:16.221Z,1008.54
2023-03-12T10:11:16.216Z,1008.52
2023-03-12T10:12:16.223Z,1008.61
2023-03-12T10:13:16.252Z,1008.53
2023-03-12T10:14:23.963Z,1008.52
2023-03-12T10:15:16.258Z,1008.51
2023-03-12T10:16:16.392Z,1008.55
2023-03-12T10:17:16.222Z,1008.54
2023-03-12T10:18:16.441Z,1008.54
2023-03-12T10:19:16.225Z,1008.57
2023-03-12T10:20:16.226Z,1008.59
2023-03-12T10:21:16.222Z,1008.56
2023-03-12T10:22:16.221Z,1008.49
2023-03-12T10:23:16.213Z,1008.48
2023-03-12T10:24:16.216Z,1008.44
2023-03-12T10:25:16.211Z,1008.52
2023-03-12T10:26:16.229Z,1008.47
2023-03-12T10:27:16.213Z,1008.47
2023-03-12T10:28:16.215Z,1008.45
2023-03-12T10:29:16.240Z,1008.31
2023-03-12T10:30:16.213Z,1008.27
2023-03-12T10:31:16.270Z,1008.37
2023-03-12T10:32:16.364Z,1008.41
2023-03-12T10:33:16.211Z,1008.38
2023-03-12T10:34:16.219Z,1008.33
2023-03-12T10:35:16.203Z,1008.37
2023-03-12T10:36:16.219Z,1008.36
2023-03-12T10:37:16.210Z,1008.33
2023-03-12T10:38:16.210Z,1008.32
2023-03-12T10:39:16.212Z,1008.26
2023-03-12T10:40:16.216Z,1008.22
2023-03-12T10:41:16.208Z,1008.15
2023-03-12T10:42:16.213Z,1008.15
2023-03-12T10:43:16.199Z,1008.16
2023-03-12T10:44:16.213Z,1008.17
2023-03-12T10:45:16.242Z,1008.14
2023-03-12T10:46:16.250Z,1008.16
2023-03-12T10:47:16.200Z,1008.10
2023-03-12T10:48:16.209Z,1008.15
2023-03-12T10:49:16.199Z,1008.20
2023-03-12T10:50:16.210Z,1008.26
2023-03-12T10:51:16.201Z,1008.25
2023-03-12T10:52:16.208Z,1008.28
2023-03-12T10:53:16.250Z,1008.16
2023-03-12T10:54:16.207Z,1008.07
2023-03-12T10:55:16.213Z,1008.12
2023-03-12T10:56:16.211Z,1008.09
2023-03-12T10:57:16.203Z,1008.08
2023-03-12T10:58:16.198Z,1008.11
2023-03-12T10:59:17.965Z,1008.01
2023-03-12T11:00:16.196Z,1007.99
2023-03-12T11:01:16.290Z,1008.04
2023-03-12T11:02:16.257Z,1008.01
2023-03-12T11:03:16.199Z,1007.95
2023-03-12T11:04:16.195Z,1007.91
2023-03-12T11:05:16.187Z,1007.96
2023-03-12T11:06:16.250Z,1007.96
2023-03-12T11:07:16.194Z,1007.92
2023-03-12T11:08:16.193Z,1007.94
2023-03-12T11:09:17.443Z,1007.85
2023-03-12T11:10:16.187Z,1007.80
2023-03-12T11:11:16.188Z,1007.79
2023-03-12T11:12:16.182Z,1007.86
2023-03-12T11:13:16.190Z,1007.79
2023-03-12T11:14:16.388Z,1007.81
2023-03-12T11:15:16.184Z,1007.80
2023-03-12T11:16:16.266Z,1007.79
2023-03-12T11:17:16.198Z,1007.80
2023-03-12T11:18:16.181Z,1007.81
2023-03-12T11:19:16.188Z,1007.78
2023-03-12T11:20:16.190Z,1007.77
2023-03-12T11:21:16.183Z,1007.73
2023-03-12T11:22:16.190Z,1007.69
2023-03-12T11:23:16.183Z,1007.64
2023-03-12T11:24:16.209Z,1007.65
2023-03-12T11:25:16.180Z,1007.64
2023-03-12T11:26:16.177Z,1007.65
2023-03-12T11:27:16.179Z,1007.65
2023-03-12T11:28:16.227Z,1007.66
2023-03-12T11:29:16.210Z,1007.66
2023-03-12T11:30:16.276Z,1007.66
2023-03-12T11:31:16.327Z,1007.70
2023-03-12T11:32:16.253Z,1007.67
2023-03-12T11:33:16.242Z,1007.60
2023-03-12T11:34:16.174Z,1007.59
2023-03-12T11:35:16.176Z,1007.62
2023-03-12T11:36:16.172Z,1007.63
2023-03-12T11:37:16.188Z,1007.53
2023-03-12T11:38:16.187Z,1007.53
2023-03-12T11:39:16.174Z,1007.46
2023-03-12T11:40:16.167Z,1007.47
2023-03-12T11:41:16.168Z,1007.46
2023-03-12T11:42:16.176Z,1007.39
2023-03-12T11:43:16.178Z,1007.45
2023-03-12T11:44:16.174Z,1007.42
2023-03-12T11:45:16.187Z,1007.40
2023-03-12T11:46:16.173Z,1007.36
2023-03-12T11:47:16.237Z,1007.34
2023-03-12T11:48:16.189Z,1007.32
2023-03-12T11:49:16.191Z,1007.36
2023-03-12T11:50:16.160Z,1007.29
2023-03-12T11:51:16.162Z,1007.33
2023-03-12T11:52:16.159Z,1007.30
2023-03-12T11:53:16.160Z,1007.35
2023-03-12T11:54:16.159Z,1007.37
2023-03-12T11:55:16.720Z,1007.36
2023-03-12T11:56:16.155Z,1007.45
2023-03-12T11:57:16.162Z,1007.43
2023-03-12T11:58:16.155Z,1007.43
2023-03-12T11:59:16.170Z,1007.39
2023-03-12T12:00:16.160Z,1007.34
2023-03-12T12:01:16.165Z,1007.29
2023-03-12T12:02:16.206Z,1007.28
2023-03-12T12:03:16.300Z,1007.25
2023-03-12T12:04:16.153Z,1007.31
2023-03-12T12:05:16.180Z,1007.32
2023-03-12T12:06:16.153Z,1007.26
2023-03-12T12:07:16.165Z,1007.24